Total 1011395 · Page 530/20228
GTIN-14 Brand Title Updated
00600603318030 Insigniaâ„¢ Insigniaâ„¢ - 5.1.2 Channel Home Theater Soundbar with Wireless Subwoofer and Rear Speakers, Dolby Atmos, DTS:X, Bluetooth - Black 2026-05-06 03:59:59.319061+00:00
00810091587140 SaharaCase SaharaCase - Venture Series Wallet Case for Google Pixel 9a - Clear/Scorpion Black 2026-05-06 03:59:59.319061+00:00
00195948067885 ZLINE ZLINE - 36 in. Autograph Paramount Gas Rangetop w/ 6 Burners & Matte Black Accents (SRTZ-36-MB) - Stainless Steel 2026-05-06 03:59:59.319061+00:00
00195948067571 ZLINE ZLINE - 36 in. Paramount Gas Rangetop with 6 Burners (SRTB-36) - Black Stainless Steel 2026-05-06 03:59:59.319061+00:00
00619659202064 SANDISK SANDISK - 256GB microSD Express Memory Card, Works with Nintendo Switch 2, R/W up to 880/650MB/s 2026-05-06 03:59:59.319061+00:00
00745883910984 Belkin Belkin - Wireless Charging Pad 15W - BOOST↑CHARGE Qi Charger for Apple iPhone, AirPods, Power Supply and Cable Included - Black 2026-05-06 03:59:59.319061+00:00
00889523046166 GIGABYTE GIGABYTE - B850M GAMING X WIFI6E (Socket AM5) AMD B850 mATX DDR5 Wi-Fi 6E Motherboard - Black 2026-05-06 03:59:34.048287+00:00
00885155046321 iRobot iRobot - Roomba 205 DustCompactor Vacuum - Compacts Dirt Inside, No Emptying for 60 Days, Bagless, Intense Suction - Black 2026-05-06 03:59:34.048287+00:00
00883049682679 Whirlpool Whirlpool - 21 Cu. Ft. Side-by-Side Counter-Depth Refrigerator with In-Door Ice & Water - White 2026-05-06 03:59:34.048287+00:00
00887276904900 Samsung Samsung - – 9100 PRO 2TB Internal SSD PCIe Gen 5x4 NVMe, Speeds Up to 14700 MB/s 2026-05-06 03:59:34.048287+00:00
00195948067632 ZLINE ZLINE - 30 in. Autograph Paramount Rangetop with Gold Accents (SRTBZ-30-G) - Black Stainless Steel 2026-05-06 03:59:34.048287+00:00
00885155046116 iRobot iRobot - Roomba 405 (G185) Combo Vacuum & Mop + AutoWash Dock - Dual Spinning Mop Pads, Self Empties, Intense Suction, Pad Lift - Black 2026-05-06 03:59:34.048287+00:00
00889523048504 GIGABYTE GIGABYTE - NVIDIA GeForce RTX 5070 Ti EAGLE OC ICE SFF 16G GDDR7 PCI Express 5.0 Graphics Card - White 2026-05-06 03:59:34.048287+00:00
00195948067595 ZLINE ZLINE - 30 in. Paramount Gas Rangetop with 4 Brass Burners (SRTB-BR-30) - Black Stainless Steel 2026-05-06 03:59:34.048287+00:00
00195948067618 ZLINE ZLINE - 48 in. Paramount Gas Rangetop with 8 Brass Burners (SRTB-BR-48) - Black Stainless Steel 2026-05-06 03:59:34.048287+00:00
00195948067731 ZLINE ZLINE - 48 in. Paramount Gas Rangetop with 8 Brass Burners (SRTS-BR-48) - Stainless Steel 2026-05-06 03:59:34.048287+00:00
00883049692227 Whirlpool Whirlpool - 28.7 Cu. Ft. Side-by-Side Refrigerator with In-Door Ice & Water - Stainless Steel 2026-05-06 03:59:34.048287+00:00
00883049922492 Whirlpool Whirlpool - 30 Cu. Ft. French Door Refrigerator with Dual Ice Makers - Fingerprint-Resistant Stainless Finish 2026-05-06 03:59:34.048287+00:00
00887276992303 Samsung Samsung - Galaxy Tab S10 FE - 10.9" 256GB - Wi-Fi - with S-Pen - Silver 2026-05-06 03:59:34.048287+00:00
00887276992266 Samsung Samsung - Galaxy Tab S10 FE - 10.9" 128GB - Wi-Fi - with S-Pen - Gray 2026-05-06 03:59:34.048287+00:00
00195948067694 ZLINE ZLINE - 36 in. Paramount Gas Rangetop with 6 Burners (SRTS-36) - Stainless Steel 2026-05-06 03:59:34.048287+00:00
00195948067762 ZLINE ZLINE - 30 in. Autograph Paramount Gas Rangetop with Black Accents (SRTSZ-30-MB) - Stainless Steel 2026-05-06 03:59:34.048287+00:00
00889523048047 GIGABYTE GIGABYTE - NVIDIA GeForce RTX 5070 Ti WINDFORCE OC SFF 16G GDDR7 PCI Express 5.0 Graphics Card - Black 2026-05-06 03:59:34.048287+00:00
00722674550710 BANDAI NAMCO Entertainment Elden Ring Nightreign Deluxe Edition - PlayStation 5 2026-05-06 03:59:34.048287+00:00
00885155045881 iRobot iRobot - Roomba 405 (G185) Combo Vacuum & Mop + AutoWash Dock - Dual Spinning Mop Pads, Self Empties, Intense Suction, Pad Lift - White 2026-05-06 03:59:34.048287+00:00
00889523045947 GIGABYTE GIGABYTE - B850 AORUS ELITE WIFI7 (Socket AM5) AMD B850 ATX DDR5 Wi-Fi 7 Motherboard - White 2026-05-06 03:59:34.048287+00:00
00885155045751 iRobot iRobot - Roomba 705 Combo Vac & Mop + AutoWash Dock - Self-Cleaning Roller Mop, Retractable Mop Cover, Self-Empties 75 Days - White 2026-05-06 03:59:34.048287+00:00
00885155046550 iRobot iRobot - Roomba 105 Combo Vacuum & Mop + AutoEmpty Dock - Self-Empties 75 Days, Intense Power-Lifting Suction, LiDAR Navigation - Black 2026-05-06 03:59:34.048287+00:00
00889523048054 GIGABYTE GIGABYTE - NVIDIA GeForce RTX 5070 Ti GAMING OC 16G GDDR7 PCI Express 5.0 Graphics Card - Black 2026-05-06 03:59:34.048287+00:00
00195948067564 ZLINE ZLINE - 30 in. Paramount Gas Rangetop with 4 Burners (SRTB-30) - Black Stainless Steel 2026-05-06 03:59:34.048287+00:00
00883049922553 Whirlpool Whirlpool - 30.53 cu. ft. French Door Bottom Freezer Refrigerator with More space with Family-Sized Capacity - Black 2026-05-06 03:59:34.048287+00:00
00195948067724 ZLINE ZLINE - 36 in. Paramount Gas Rangetop with 6 Brass Burners (SRTS-BR-36) - Stainless Steel 2026-05-06 03:59:34.048287+00:00
00887276992273 Samsung Samsung - Galaxy Tab S10 FE - 10.9" 256GB - Wi-Fi - with S-Pen - Blue 2026-05-06 03:59:34.048287+00:00
00622356662673 Ninja Ninja - Sizzle Pro XL 20-Inch Indoor Griddle & Grill with ProTemp IQ - Silver 2026-05-06 03:59:34.048287+00:00
00198990677460 HP HP - Victus 15.6" 144Hz Full HD Gaming Laptop - Intel Core i5 13420H 2023 - 8GB Memory - NVIDIA GeForce RTX 3050 - 512GB SSD - Mica Silver 2026-05-06 03:59:34.048287+00:00
00195948067656 ZLINE ZLINE - 36 in. Autograph Paramount Rangetop with Gold Accents (SRTBZ-36-G) - Black Stainless Steel 2026-05-06 03:59:34.048287+00:00
00889523046067 GIGABYTE GIGABYTE - B850 AORUS ELITE WIFI7 (Socket AM5) AMD B850 ATX DDR5 Wi-Fi 7 Motherboard - Black 2026-05-06 03:59:34.048287+00:00
00887276992563 Samsung Samsung - Galaxy Tab S10 FE+ - 13.1" 128GB - Wi-Fi - with S-Pen - Gray 2026-05-06 03:59:34.048287+00:00
00622356668101 Ninja Ninja - Swirl by CREAMi Pints and Lids, 2 Pack - Grey Lids 2026-05-06 03:59:34.048287+00:00
00883049683782 KitchenAid KitchenAid - 20.8 Cu. Ft. Counter-Depth Side-by-Side Refrigerator with Exterior Ice - Stainless Steel 2026-05-06 03:59:34.048287+00:00
00887276992259 Samsung Samsung - Galaxy Tab S10 FE - 10.9" 256GB - Wi-Fi - with S-Pen - Gray 2026-05-06 03:59:34.048287+00:00
00883049682662 Whirlpool Whirlpool - 21 Cu. Ft. Side-by-Side Counter-Depth Refrigerator with TruCool System - Fingerprint-Resistant Stainless Finish 2026-05-06 03:59:34.048287+00:00
00887276904955 Samsung Samsung - – 9100 PRO 1TB with Heatsink Internal SSD PCIe Gen 5x4 NVMe, Speeds Up to 14700 MB/s 2026-05-06 03:59:34.048287+00:00
00883049922614 Whirlpool Whirlpool - 31 Cu.Ft. French Door Refrigerator with Ice Maker and Family-Sized Capacity - White 2026-05-06 03:59:34.048287+00:00
00195948067854 ZLINE ZLINE - 30 in. Autograph Paramount Gas Rangetop w/ 4 Burners & Matte Black Accents (SRTZ-30-MB) - Stainless Steel 2026-05-06 03:59:34.048287+00:00
00887276904894 Samsung Samsung - – 9100 PRO 4TB Internal SSD PCIe Gen 5x4 NVMe, Speeds Up to 14800 MB/s 2026-05-06 03:59:34.048287+00:00
00197105882751 ASUS ASUS - ROG Flow Z13 13.4" 2.5K 180Hz Touch-Screen Gaming Laptop - Copilot+ PC - AMD Ryzen AI Max+ 395 - 32GB RAM - 1TB SSD - Off Black 2026-05-06 03:59:34.048287+00:00
00622356662253 Ninja Ninja - Woodfire Outdoor Grill & Smoker, 4-in-1 Functionality, Authentic Woodfire Flavors, Electric Heat - Black 2026-05-06 03:59:34.048287+00:00
00887276904917 Samsung Samsung - – 9100 PRO 1TB Internal SSD PCIe Gen 5x4 NVMe, Speeds Up to 14700 MB/s 2026-05-06 03:59:34.048287+00:00
00883049684109 Whirlpool Whirlpool - 21 Cu. Ft. Side-by-Side Counter-Depth Refrigerator with In-Door Ice & Water - Black 2026-05-06 03:59:34.048287+00:00
Prev Next
Tip: paste a UPC/GTIN, it will zero-pad.